AAL1496 MMMM-KDFW
Flight info
| Callsign | AAL1496 |
|---|---|
| Flight time | N/A |
| Altitude | 18000 |
| Route | MLM5B MLM V39 BJX/N0455F370 UJ40 SLP UJ45 MTY UJ11E RIKAN/N0453F380 UJ11E NLD/N0451F370 DCT SAT/N0453F380 J23 HENLY/N0453F370 DCT GUTZZ BOOVE7 |
| Aircraft | A319/M-SDE3FGHIRWY/LB1 |
Departure
| Time | 2026-04-27 02:48 |
|---|---|
| Airport | General Francisco J. Mujica International Airport (MMMM) |
Arrival
| Time | N/A |
|---|---|
| Airport | Dallas Fort Worth International Airport (KDFW) |
| Time | Latitude | Longitude | Altitude | Speed | Heading |
|---|---|---|---|---|---|
| 2026-04-27 02:22 | 19.84423 | -101.02788 | 6056 ft | 0 kts | 145° |
| 2026-04-27 02:38 | 19.84428 | -101.02791 | 6056 ft | 4 kts | 144° |
| 2026-04-27 02:39 | 19.84449 | -101.02809 | 6056 ft | 4 kts | 135° |
| 2026-04-27 02:39 | 19.84466 | -101.02830 | 6056 ft | 4 kts | 107° |
| 2026-04-27 02:39 | 19.84466 | -101.02850 | 6056 ft | 1 kts | 54° |
| 2026-04-27 02:39 | 19.84464 | -101.02853 | 6056 ft | 0 kts | 54° |
| 2026-04-27 02:41 | 19.84468 | -101.02845 | 6056 ft | 3 kts | 55° |
| 2026-04-27 02:42 | 19.84488 | -101.02814 | 6057 ft | 7 kts | 56° |
| 2026-04-27 02:42 | 19.84519 | -101.02765 | 6057 ft | 8 kts | 56° |
| 2026-04-27 02:42 | 19.84554 | -101.02717 | 6058 ft | 8 kts | 38° |
| 2026-04-27 02:42 | 19.84600 | -101.02724 | 6059 ft | 7 kts | 334° |
| 2026-04-27 02:43 | 19.84651 | -101.02741 | 6059 ft | 8 kts | 0° |
| 2026-04-27 02:43 | 19.84707 | -101.02721 | 6061 ft | 9 kts | 25° |
| 2026-04-27 02:43 | 19.84763 | -101.02692 | 6063 ft | 10 kts | 25° |
| 2026-04-27 02:43 | 19.84834 | -101.02658 | 6063 ft | 13 kts | 24° |
| 2026-04-27 02:44 | 19.84923 | -101.02600 | 6068 ft | 17 kts | 39° |
| 2026-04-27 02:44 | 19.85006 | -101.02508 | 6068 ft | 17 kts | 49° |
| 2026-04-27 02:44 | 19.85076 | -101.02403 | 6072 ft | 18 kts | 54° |
| 2026-04-27 02:44 | 19.85148 | -101.02295 | 6073 ft | 19 kts | 54° |
| 2026-04-27 02:45 | 19.85225 | -101.02180 | 6071 ft | 20 kts | 54° |
| 2026-04-27 02:45 | 19.85310 | -101.02054 | 6065 ft | 23 kts | 54° |
| 2026-04-27 02:45 | 19.85409 | -101.01906 | 6059 ft | 26 kts | 54° |
| 2026-04-27 02:45 | 19.85520 | -101.01740 | 6058 ft | 26 kts | 54° |
| 2026-04-27 02:46 | 19.85621 | -101.01588 | 6053 ft | 27 kts | 54° |
| 2026-04-27 02:46 | 19.85712 | -101.01454 | 6048 ft | 22 kts | 54° |
| 2026-04-27 02:46 | 19.85786 | -101.01343 | 6044 ft | 16 kts | 55° |
| 2026-04-27 02:46 | 19.85807 | -101.01262 | 6042 ft | 12 kts | 99° |
| 2026-04-27 02:47 | 19.85827 | -101.01205 | 6039 ft | 10 kts | 17° |
| 2026-04-27 02:47 | 19.85856 | -101.01241 | 6040 ft | 7 kts | 243° |
| 2026-04-27 02:47 | 19.85851 | -101.01249 | 6041 ft | 2 kts | 236° |
| 2026-04-27 02:47 | 19.85766 | -101.01374 | 6045 ft | 45 kts | 234° |
| 2026-04-27 02:48 | 19.85485 | -101.01794 | 6060 ft | 95 kts | 234° |
| 2026-04-27 02:48 | 19.84993 | -101.02525 | 6070 ft | 148 kts | 234° |
| 2026-04-27 02:48 | 19.84306 | -101.03545 | 6252 ft | 178 kts | 236° |
| 2026-04-27 02:48 | 19.83597 | -101.04596 | 7071 ft | 173 kts | 234° |
| 2026-04-27 02:49 | 19.82911 | -101.05614 | 7635 ft | 170 kts | 233° |
| 2026-04-27 02:49 | 19.82212 | -101.06672 | 7993 ft | 182 kts | 235° |
| 2026-04-27 02:49 | 19.81483 | -101.07821 | 8247 ft | 193 kts | 236° |
| 2026-04-27 02:49 | 19.80713 | -101.09047 | 8497 ft | 206 kts | 236° |
| 2026-04-27 02:50 | 19.79899 | -101.10319 | 8911 ft | 210 kts | 234° |
| 2026-04-27 02:50 | 19.79052 | -101.11589 | 9399 ft | 210 kts | 234° |
| 2026-04-27 02:50 | 19.78195 | -101.12853 | 9898 ft | 212 kts | 233° |
| 2026-04-27 02:50 | 19.77380 | -101.14168 | 10266 ft | 219 kts | 248° |
| 2026-04-27 02:51 | 19.77403 | -101.15758 | 10647 ft | 221 kts | 294° |
| 2026-04-27 02:51 | 19.78423 | -101.16906 | 11082 ft | 222 kts | 335° |
| 2026-04-27 02:51 | 19.79925 | -101.17055 | 11529 ft | 222 kts | 17° |
| 2026-04-27 02:51 | 19.81141 | -101.16103 | 11995 ft | 222 kts | 58° |
| 2026-04-27 02:52 | 19.81574 | -101.14528 | 12482 ft | 223 kts | 80° |
| 2026-04-27 02:52 | 19.81864 | -101.12940 | 13095 ft | 216 kts | 73° |
| 2026-04-27 02:52 | 19.82299 | -101.11404 | 13522 ft | 220 kts | 72° |
| 2026-04-27 02:52 | 19.82743 | -101.09797 | 13751 ft | 234 kts | 71° |
| 2026-04-27 02:53 | 19.83241 | -101.08100 | 13964 ft | 248 kts | 70° |
| 2026-04-27 02:53 | 19.84093 | -101.06448 | 14058 ft | 267 kts | 45° |
| 2026-04-27 02:53 | 19.85675 | -101.05409 | 14242 ft | 282 kts | 15° |
| 2026-04-27 02:53 | 19.87686 | -101.05245 | 14406 ft | 301 kts | 354° |
| 2026-04-27 02:54 | 19.89796 | -101.05746 | 14557 ft | 322 kts | 341° |
| 2026-04-27 02:54 | 19.91949 | -101.06627 | 14720 ft | 339 kts | 340° |
| 2026-04-27 02:54 | 19.94209 | -101.07521 | 14898 ft | 355 kts | 341° |
| 2026-04-27 02:54 | 19.96579 | -101.08409 | 15218 ft | 363 kts | 341° |
| 2026-04-27 02:55 | 19.98963 | -101.09293 | 15791 ft | 364 kts | 341° |
| 2026-04-27 02:55 | 20.01362 | -101.10186 | 16305 ft | 367 kts | 341° |
| 2026-04-27 02:55 | 20.03751 | -101.11085 | 16768 ft | 371 kts | 340° |
| 2026-04-27 02:55 | 20.06190 | -101.12029 | 17214 ft | 376 kts | 340° |
| 2026-04-27 02:56 | 20.08668 | -101.13009 | 17596 ft | 383 kts | 339° |
| 2026-04-27 02:56 | 20.11175 | -101.13995 | 18085 ft | 387 kts | 340° |
| 2026-04-27 02:56 | 20.13720 | -101.14974 | 18540 ft | 390 kts | 340° |
| 2026-04-27 02:56 | 20.16286 | -101.15950 | 18943 ft | 394 kts | 340° |
| 2026-04-27 02:57 | 20.18882 | -101.16949 | 19362 ft | 398 kts | 339° |
| 2026-04-27 02:57 | 20.21491 | -101.17965 | 19828 ft | 401 kts | 339° |
| 2026-04-27 02:57 | 20.24115 | -101.18991 | 20369 ft | 402 kts | 339° |
| 2026-04-27 02:57 | 20.26752 | -101.20016 | 20869 ft | 404 kts | 339° |
| 2026-04-27 02:58 | 20.29403 | -101.21036 | 21357 ft | 407 kts | 339° |
| 2026-04-27 02:58 | 20.32041 | -101.22046 | 21822 ft | 409 kts | 339° |
| 2026-04-27 02:58 | 20.34724 | -101.23072 | 22271 ft | 412 kts | 339° |
| 2026-04-27 02:58 | 20.37430 | -101.24108 | 22720 ft | 414 kts | 339° |
| 2026-04-27 02:59 | 20.40148 | -101.25153 | 23143 ft | 417 kts | 339° |
| 2026-04-27 02:59 | 20.42887 | -101.26208 | 23547 ft | 419 kts | 339° |
| 2026-04-27 02:59 | 20.45635 | -101.27270 | 23904 ft | 422 kts | 338° |
| 2026-04-27 02:59 | 20.48399 | -101.28342 | 24260 ft | 423 kts | 338° |
| 2026-04-27 03:00 | 20.51176 | -101.29421 | 24635 ft | 425 kts | 338° |
| 2026-04-27 03:00 | 20.53921 | -101.30488 | 24998 ft | 427 kts | 338° |
| 2026-04-27 03:00 | 20.56716 | -101.31573 | 25357 ft | 428 kts | 338° |
| 2026-04-27 03:00 | 20.59523 | -101.32662 | 25715 ft | 430 kts | 338° |
| 2026-04-27 03:01 | 20.62344 | -101.33755 | 26082 ft | 432 kts | 338° |
| 2026-04-27 03:01 | 20.65175 | -101.34851 | 26440 ft | 433 kts | 338° |
| 2026-04-27 03:01 | 20.68014 | -101.35949 | 26822 ft | 435 kts | 338° |
| 2026-04-27 03:01 | 20.70864 | -101.37051 | 27203 ft | 437 kts | 338° |
| 2026-04-27 03:02 | 20.73731 | -101.38159 | 27588 ft | 438 kts | 338° |
| 2026-04-27 03:02 | 20.76599 | -101.39269 | 27960 ft | 440 kts | 338° |
| 2026-04-27 03:02 | 20.79485 | -101.40387 | 28345 ft | 442 kts | 337° |
| 2026-04-27 03:02 | 20.82343 | -101.41494 | 28727 ft | 443 kts | 337° |
| 2026-04-27 03:03 | 20.85247 | -101.42620 | 29099 ft | 445 kts | 337° |
| 2026-04-27 03:03 | 20.91088 | -101.44885 | 29832 ft | 448 kts | 337° |
| 2026-04-27 03:03 | 20.94032 | -101.46010 | 30155 ft | 451 kts | 339° |
| 2026-04-27 03:04 | 20.97105 | -101.46744 | 30432 ft | 457 kts | 349° |
| 2026-04-27 03:04 | 21.00297 | -101.46882 | 30702 ft | 463 kts | 360° |
| 2026-04-27 03:04 | 21.03502 | -101.46393 | 30963 ft | 469 kts | 10° |
| 2026-04-27 03:04 | 21.06621 | -101.45276 | 31222 ft | 475 kts | 19° |
| 2026-04-27 03:05 | 21.09683 | -101.43934 | 31525 ft | 475 kts | 18° |
| 2026-04-27 03:05 | 21.12702 | -101.42618 | 31884 ft | 474 kts | 18° |
| 2026-04-27 03:05 | 21.15752 | -101.41293 | 32216 ft | 473 kts | 18° |
| 2026-04-27 03:05 | 21.18794 | -101.39973 | 32558 ft | 472 kts | 18° |
| 2026-04-27 03:06 | 21.21837 | -101.38652 | 32939 ft | 471 kts | 18° |
| 2026-04-27 03:06 | 21.24863 | -101.37336 | 33305 ft | 469 kts | 18° |
| 2026-04-27 03:06 | 21.27888 | -101.36018 | 33667 ft | 468 kts | 18° |
| 2026-04-27 03:06 | 21.30902 | -101.34702 | 34018 ft | 467 kts | 18° |
| 2026-04-27 03:07 | 21.33912 | -101.33388 | 34345 ft | 466 kts | 17° |
| 2026-04-27 03:07 | 21.36872 | -101.32096 | 34697 ft | 465 kts | 17° |
| 2026-04-27 03:07 | 21.39863 | -101.30790 | 35056 ft | 463 kts | 17° |
| 2026-04-27 03:07 | 21.42844 | -101.29486 | 35395 ft | 462 kts | 17° |
| 2026-04-27 03:08 | 21.45812 | -101.28185 | 35698 ft | 461 kts | 17° |
| 2026-04-27 03:08 | 21.48776 | -101.26890 | 36022 ft | 459 kts | 17° |
| 2026-04-27 03:08 | 21.51740 | -101.25595 | 36330 ft | 459 kts | 16° |
| 2026-04-27 03:08 | 21.54693 | -101.24301 | 36629 ft | 458 kts | 16° |
| 2026-04-27 03:09 | 21.57639 | -101.23008 | 36858 ft | 458 kts | 16° |
| 2026-04-27 03:09 | 21.63488 | -101.20444 | 36906 ft | 456 kts | 16° |
| 2026-04-27 03:10 | 21.69367 | -101.17861 | 36909 ft | 456 kts | 16° |
| 2026-04-27 03:10 | 21.75251 | -101.15270 | 36913 ft | 457 kts | 16° |
| 2026-04-27 03:11 | 21.81135 | -101.12672 | 36918 ft | 457 kts | 16° |
| 2026-04-27 03:11 | 21.87023 | -101.10076 | 36920 ft | 458 kts | 16° |
| 2026-04-27 03:12 | 21.92876 | -101.07505 | 36929 ft | 458 kts | 16° |
| 2026-04-27 03:12 | 21.98771 | -101.04913 | 36990 ft | 458 kts | 16° |
| 2026-04-27 03:13 | 22.04670 | -101.02304 | 37044 ft | 458 kts | 16° |
| 2026-04-27 03:13 | 22.10568 | -100.99698 | 37092 ft | 458 kts | 15° |
| 2026-04-27 03:14 | 22.16471 | -100.97094 | 37141 ft | 459 kts | 15° |
| 2026-04-27 03:14 | 22.22337 | -100.94509 | 37149 ft | 459 kts | 15° |
| 2026-04-27 03:15 | 22.28353 | -100.92414 | 37150 ft | 449 kts | 5° |
| 2026-04-27 03:15 | 22.34472 | -100.91023 | 37154 ft | 450 kts | 5° |
| 2026-04-27 03:16 | 22.40592 | -100.89625 | 37110 ft | 449 kts | 5° |
| 2026-04-27 03:16 | 22.46668 | -100.88231 | 37062 ft | 449 kts | 5° |
| 2026-04-27 03:17 | 22.52785 | -100.86822 | 37011 ft | 449 kts | 5° |
| 2026-04-27 03:17 | 22.58899 | -100.85417 | 36960 ft | 449 kts | 5° |
| 2026-04-27 03:18 | 22.65009 | -100.84014 | 36945 ft | 449 kts | 5° |
| 2026-04-27 03:18 | 22.71122 | -100.82602 | 36946 ft | 449 kts | 5° |
| 2026-04-27 03:19 | 22.77235 | -100.81189 | 36942 ft | 449 kts | 5° |
| 2026-04-27 03:19 | 22.83313 | -100.79796 | 36942 ft | 449 kts | 5° |
| 2026-04-27 03:20 | 22.89429 | -100.78392 | 36939 ft | 449 kts | 5° |
| 2026-04-27 03:20 | 22.95539 | -100.76976 | 36941 ft | 450 kts | 5° |
| 2026-04-27 03:21 | 23.01657 | -100.75556 | 36943 ft | 449 kts | 5° |
| 2026-04-27 03:21 | 23.07735 | -100.74152 | 36941 ft | 450 kts | 5° |
| 2026-04-27 03:22 | 23.13854 | -100.72742 | 36934 ft | 450 kts | 5° |
| 2026-04-27 03:22 | 23.19982 | -100.71319 | 36936 ft | 450 kts | 5° |
| 2026-04-27 03:23 | 23.25956 | -100.69930 | 36932 ft | 450 kts | 5° |
| 2026-04-27 03:23 | 23.32083 | -100.68507 | 36929 ft | 450 kts | 5° |
| 2026-04-27 03:24 | 23.38177 | -100.67090 | 36929 ft | 451 kts | 5° |
| 2026-04-27 03:24 | 23.44307 | -100.65659 | 36927 ft | 451 kts | 5° |
| 2026-04-27 03:25 | 23.50448 | -100.64227 | 36926 ft | 451 kts | 5° |
| 2026-04-27 03:25 | 23.56587 | -100.62802 | 36924 ft | 451 kts | 5° |
| 2026-04-27 03:26 | 23.62685 | -100.61383 | 36921 ft | 451 kts | 5° |
| 2026-04-27 03:26 | 23.68827 | -100.59952 | 36926 ft | 451 kts | 5° |
| 2026-04-27 03:27 | 23.74965 | -100.58519 | 36925 ft | 451 kts | 5° |
| 2026-04-27 03:27 | 23.81106 | -100.57079 | 36928 ft | 451 kts | 5° |
| 2026-04-27 03:28 | 23.87204 | -100.55641 | 36927 ft | 451 kts | 5° |
| 2026-04-27 03:28 | 23.93337 | -100.54200 | 36930 ft | 451 kts | 5° |
| 2026-04-27 03:29 | 23.99467 | -100.52770 | 36928 ft | 450 kts | 5° |
| 2026-04-27 03:29 | 24.05597 | -100.51341 | 36931 ft | 450 kts | 5° |
| 2026-04-27 03:30 | 24.11718 | -100.49901 | 36937 ft | 450 kts | 5° |
| 2026-04-27 03:30 | 24.17799 | -100.48459 | 36945 ft | 450 kts | 5° |
| 2026-04-27 03:31 | 24.23916 | -100.47016 | 36949 ft | 450 kts | 5° |
| 2026-04-27 03:31 | 24.30039 | -100.45576 | 36951 ft | 450 kts | 5° |
| 2026-04-27 03:32 | 24.36155 | -100.44132 | 36957 ft | 450 kts | 5° |
| 2026-04-27 03:32 | 24.42281 | -100.42682 | 36960 ft | 450 kts | 5° |
| 2026-04-27 03:33 | 24.48364 | -100.41235 | 36967 ft | 450 kts | 5° |
| 2026-04-27 03:33 | 24.54483 | -100.39784 | 36972 ft | 450 kts | 5° |
| 2026-04-27 03:34 | 24.60615 | -100.38337 | 36972 ft | 451 kts | 5° |
| 2026-04-27 03:34 | 24.66747 | -100.36891 | 36979 ft | 451 kts | 5° |
| 2026-04-27 03:35 | 24.72842 | -100.35445 | 36975 ft | 451 kts | 5° |
| 2026-04-27 03:35 | 24.78979 | -100.33983 | 36983 ft | 451 kts | 5° |
| 2026-04-27 03:36 | 24.85116 | -100.32526 | 36985 ft | 451 kts | 5° |
| 2026-04-27 03:36 | 24.91250 | -100.31064 | 36986 ft | 451 kts | 5° |
| 2026-04-27 03:37 | 24.97346 | -100.29612 | 36978 ft | 451 kts | 5° |
| 2026-04-27 03:37 | 25.03332 | -100.28182 | 36974 ft | 451 kts | 5° |
| 2026-04-27 03:38 | 25.09466 | -100.26717 | 36970 ft | 451 kts | 5° |
| 2026-04-27 03:38 | 25.14567 | -100.25495 | 36959 ft | 452 kts | 5° |
| 2026-04-27 03:39 | 25.21713 | -100.23782 | 36955 ft | 453 kts | 5° |
| 2026-04-27 03:39 | 25.27859 | -100.22312 | 36931 ft | 452 kts | 5° |
| 2026-04-27 03:40 | 25.32976 | -100.21081 | 36923 ft | 452 kts | 5° |
| 2026-04-27 03:40 | 25.39119 | -100.19603 | 36910 ft | 452 kts | 5° |
| 2026-04-27 03:41 | 25.41713 | -100.18981 | 36900 ft | 452 kts | 4° |
| 2026-04-27 03:41 | 25.48862 | -100.17267 | 36885 ft | 453 kts | 5° |
| 2026-04-27 03:42 | 25.53980 | -100.16028 | 36877 ft | 453 kts | 5° |
| 2026-04-27 03:42 | 25.60132 | -100.14543 | 36873 ft | 453 kts | 5° |
| 2026-04-27 03:43 | 25.66301 | -100.13052 | 36878 ft | 454 kts | 5° |
| 2026-04-27 03:43 | 25.72472 | -100.11557 | 36881 ft | 454 kts | 5° |
| 2026-04-27 03:44 | 25.78520 | -100.09475 | 36882 ft | 468 kts | 19° |
| 2026-04-27 03:44 | 25.84192 | -100.05796 | 36881 ft | 474 kts | 24° |
| 2026-04-27 03:45 | 25.89840 | -100.02003 | 36878 ft | 474 kts | 24° |
| 2026-04-27 03:45 | 25.95485 | -99.98221 | 36862 ft | 474 kts | 24° |
| 2026-04-27 03:46 | 26.01100 | -99.94457 | 36845 ft | 474 kts | 24° |
| 2026-04-27 03:46 | 26.06750 | -99.90666 | 36831 ft | 474 kts | 24° |
| 2026-04-27 03:47 | 26.12406 | -99.86866 | 36838 ft | 475 kts | 24° |
| 2026-04-27 03:47 | 26.18057 | -99.83064 | 36829 ft | 475 kts | 24° |
| 2026-04-27 03:48 | 26.23705 | -99.79258 | 36832 ft | 475 kts | 24° |
| 2026-04-27 03:48 | 26.29316 | -99.75474 | 36829 ft | 475 kts | 24° |
| 2026-04-27 03:49 | 26.34971 | -99.71658 | 36826 ft | 475 kts | 24° |
| 2026-04-27 03:49 | 26.40625 | -99.67847 | 36821 ft | 475 kts | 24° |
| 2026-04-27 03:50 | 26.46267 | -99.64019 | 36822 ft | 475 kts | 24° |
| 2026-04-27 03:50 | 26.51936 | -99.60393 | 36813 ft | 466 kts | 15° |
| 2026-04-27 03:50 | 26.54962 | -99.59236 | 36809 ft | 455 kts | 5° |
| 2026-04-27 03:51 | 26.58039 | -99.58633 | 36811 ft | 445 kts | 356° |
| 2026-04-27 03:51 | 26.64163 | -99.58427 | 36805 ft | 440 kts | 353° |
| 2026-04-27 03:52 | 26.70297 | -99.58274 | 36808 ft | 441 kts | 353° |
| 2026-04-27 03:52 | 26.76242 | -99.58109 | 36814 ft | 441 kts | 353° |
| 2026-04-27 03:53 | 26.82386 | -99.57949 | 36820 ft | 441 kts | 353° |
| 2026-04-27 03:53 | 26.88527 | -99.57805 | 36829 ft | 441 kts | 353° |
| 2026-04-27 03:54 | 26.94668 | -99.57656 | 36827 ft | 442 kts | 353° |
| 2026-04-27 03:54 | 27.00774 | -99.57513 | 36827 ft | 442 kts | 352° |
| 2026-04-27 03:55 | 27.06922 | -99.57365 | 36826 ft | 442 kts | 352° |
| 2026-04-27 03:55 | 27.13069 | -99.57216 | 36821 ft | 442 kts | 352° |
| 2026-04-27 03:56 | 27.19222 | -99.57061 | 36814 ft | 442 kts | 352° |
| 2026-04-27 03:56 | 27.25314 | -99.56906 | 36819 ft | 442 kts | 352° |
| 2026-04-27 03:57 | 27.31430 | -99.56751 | 36820 ft | 442 kts | 352° |
| 2026-04-27 03:57 | 27.37583 | -99.56603 | 36824 ft | 442 kts | 352° |
| 2026-04-27 03:58 | 27.43759 | -99.56093 | 36827 ft | 455 kts | 4° |
| 2026-04-27 03:58 | 27.46829 | -99.55062 | 36827 ft | 466 kts | 14° |
| 2026-04-27 03:58 | 27.49815 | -99.53602 | 36828 ft | 469 kts | 15° |
| 2026-04-27 03:59 | 27.55762 | -99.50667 | 36830 ft | 470 kts | 15° |
| 2026-04-27 03:59 | 27.61752 | -99.47723 | 36829 ft | 470 kts | 15° |
| 2026-04-27 04:00 | 27.67747 | -99.44780 | 36833 ft | 470 kts | 15° |
| 2026-04-27 04:00 | 27.73746 | -99.41839 | 36834 ft | 470 kts | 15° |
| 2026-04-27 04:01 | 27.79711 | -99.38912 | 36832 ft | 471 kts | 15° |
| 2026-04-27 04:01 | 27.85717 | -99.35945 | 36837 ft | 471 kts | 15° |
| 2026-04-27 04:02 | 27.91720 | -99.32972 | 36832 ft | 471 kts | 15° |
| 2026-04-27 04:02 | 27.97724 | -99.30004 | 36831 ft | 471 kts | 15° |
| 2026-04-27 04:03 | 28.03733 | -99.27042 | 36832 ft | 471 kts | 15° |
| 2026-04-27 04:03 | 28.09738 | -99.24061 | 36836 ft | 471 kts | 15° |
| 2026-04-27 04:04 | 28.15702 | -99.21093 | 36841 ft | 471 kts | 15° |
| 2026-04-27 04:04 | 28.21714 | -99.18108 | 36848 ft | 472 kts | 15° |
| 2026-04-27 04:05 | 28.27730 | -99.15118 | 36857 ft | 472 kts | 15° |
| 2026-04-27 04:05 | 28.33746 | -99.12129 | 36858 ft | 472 kts | 15° |
| 2026-04-27 04:06 | 28.39726 | -99.09154 | 36860 ft | 472 kts | 15° |